Time;durP1;ratioP1;P1;durP2;ratioP2;P2;SDS_P1;SDS_P2;PMS_P1;PMS_P2;Temp;Humidity;BMP_temperature;BMP_pressure;BME280_temperature;BME280_humidity;BME280_pressure;Samples;Min_cycle;Max_cycle;Signal;HPM_P1;HPM_P2
2023/06/11 00:01:55;;;;;;;36.53;32.13;;;17.50;99.90;;;;;;5010565;28;20041;-62
2023/06/11 00:04:24;;;;;;;35.72;32.08;;;17.80;99.90;;;;;;5010328;28;20084;-62
2023/06/11 00:06:54;;;;;;;37.83;33.92;;;17.80;99.90;;;;;;5010557;28;20061;-62
2023/06/11 00:09:22;;;;;;;39.97;34.50;;;17.50;99.90;;;;;;5008850;28;20530;-62
2023/06/11 00:11:48;;;;;;;37.05;33.22;;;17.60;99.90;;;;;;5009388;28;20475;-62
2023/06/11 00:14:13;;;;;;;38.95;34.88;;;18.00;99.90;;;;;;5009035;28;20037;-62
2023/06/11 00:16:40;;;;;;;36.97;33.28;;;18.20;99.90;;;;;;4999921;28;20416;-62
2023/06/11 00:19:06;;;;;;;36.60;33.00;;;18.20;99.90;;;;;;5006551;28;20042;-62
2023/06/11 00:21:32;;;;;;;36.72;33.00;;;18.00;99.90;;;;;;5009803;28;20048;-62
2023/06/11 00:23:58;;;;;;;35.70;32.17;;;18.20;99.90;;;;;;5009463;28;20116;-62
2023/06/11 00:26:25;;;;;;;36.50;32.75;;;18.40;99.90;;;;;;5009952;28;20041;-62
2023/06/11 00:28:51;;;;;;;35.53;31.83;;;18.50;99.90;;;;;;5009228;28;20069;-62
2023/06/11 00:31:17;;;;;;;36.33;32.60;;;18.60;99.90;;;;;;5009787;28;20089;-62
2023/06/11 00:33:43;;;;;;;35.40;31.80;;;18.50;99.90;;;;;;5008074;28;20061;-62
2023/06/11 00:36:09;;;;;;;35.70;31.08;;;18.80;99.90;;;;;;5007556;28;20503;-62
2023/06/11 00:38:35;;;;;;;39.15;31.48;;;19.00;99.90;;;;;;5010016;28;20077;-62
2023/06/11 00:41:01;;;;;;;37.92;31.25;;;19.00;99.90;;;;;;5007433;28;20420;-62
2023/06/11 00:43:28;;;;;;;35.88;32.22;;;18.90;99.90;;;;;;5009318;28;20294;-63
2023/06/11 00:45:54;;;;;;;34.40;31.10;;;18.80;99.90;;;;;;5007269;28;20030;-62
2023/06/11 00:48:20;;;;;;;37.03;32.63;;;19.30;99.90;;;;;;5009154;28;20037;-62
2023/06/11 00:50:51;;;;;;;35.05;31.85;;;18.90;99.90;;;;;;5008642;28;20069;-62
2023/06/11 00:53:18;;;;;;;35.72;32.08;;;18.90;99.90;;;;;;5007106;28;20128;-62
2023/06/11 00:55:45;;;;;;;36.13;32.58;;;19.00;99.90;;;;;;5008755;28;20034;-62
2023/06/11 00:58:14;;;;;;;34.92;31.15;;;19.20;99.90;;;;;;5008991;28;20493;-62
2023/06/11 01:00:46;;;;;;;36.60;32.67;;;19.20;99.90;;;;;;5006719;28;20130;-63
2023/06/11 01:03:18;;;;;;;34.83;30.95;;;19.30;99.90;;;;;;5009544;28;20049;-62
2023/06/11 01:06:04;;;;;;;34.60;31.33;;;19.30;19.60;;;;;;5008657;28;20048;-62
2023/06/11 01:08:38;;;;;;;36.40;32.85;;;19.30;1.00;;;;;;5008168;28;20403;-62
2023/06/11 01:11:08;;;;;;;35.10;31.83;;;19.30;99.90;;;;;;5008301;28;20037;-62
2023/06/11 01:13:36;;;;;;;36.20;32.70;;;19.10;48.20;;;;;;5009476;28;20057;-62
2023/06/11 01:16:07;;;;;;;37.33;33.45;;;19.20;1.00;;;;;;5005429;28;20073;-62
2023/06/11 01:18:39;;;;;;;37.03;33.45;;;19.20;99.90;;;;;;5006258;28;20042;-62
2023/06/11 01:21:12;;;;;;;36.45;33.15;;;19.20;51.00;;;;;;5009556;28;20038;-62
2023/06/11 01:23:46;;;;;;;37.60;33.20;;;19.20;1.00;;;;;;5003375;28;20066;-62
2023/06/11 01:26:27;;;;;;;38.03;34.30;;;19.40;99.90;;;;;;5007993;28;20391;-62
2023/06/11 01:28:56;;;;;;;37.15;33.40;;;19.20;12.40;;;;;;5007565;28;20038;-62
2023/06/11 01:31:25;;;;;;;38.28;34.63;;;19.40;1.00;;;;;;5008711;28;20045;-62
2023/06/11 01:33:51;;;;;;;38.40;34.70;;;19.20;99.90;;;;;;5010428;28;20077;-62
2023/06/11 01:36:17;;;;;;;37.63;33.92;;;19.30;99.90;;;;;;5012015;28;20077;-62
2023/06/11 01:38:44;;;;;;;37.45;33.80;;;19.30;64.90;;;;;;5013552;28;20037;-62
2023/06/11 01:41:13;;;;;;;38.47;34.55;;;19.10;1.00;;;;;;5012404;28;20030;-62
2023/06/11 01:43:42;;;;;;;38.28;34.50;;;19.20;1.00;;;;;;5012598;28;20058;-62
2023/06/11 01:46:08;;;;;;;37.90;34.13;;;19.20;1.00;;;;;;5010008;28;20053;-63
2023/06/11 01:48:33;;;;;;;38.10;34.50;;;19.10;1.00;;;;;;5027373;28;20420;-62
2023/06/11 01:50:59;;;;;;;38.75;35.00;;;19.20;1.00;;;;;;5012759;28;20192;-62
2023/06/11 01:53:25;;;;;;;37.03;33.28;;;19.30;99.90;;;;;;5013183;28;20121;-62
2023/06/11 01:55:51;;;;;;;36.05;32.65;;;19.10;99.90;;;;;;5009972;28;20038;-62
2023/06/11 01:58:17;;;;;;;38.35;34.55;;;19.00;99.90;;;;;;5009928;28;20045;-61
2023/06/11 02:00:43;;;;;;;37.78;34.13;;;19.00;99.90;;;;;;5012751;28;20038;-62
2023/06/11 02:03:09;;;;;;;36.67;33.47;;;19.00;99.00;;;;;;5012893;28;20046;-62
2023/06/11 02:05:35;;;;;;;39.65;35.80;;;19.20;20.60;;;;;;5012173;28;20053;-62
2023/06/11 02:08:00;;;;;;;38.75;35.17;;;18.90;1.00;;;;;;5011614;28;20450;-62
2023/06/11 02:10:26;;;;;;;38.53;34.72;;;18.80;1.00;;;;;;5012596;28;20046;-62
2023/06/11 02:12:52;;;;;;;39.15;35.22;;;18.90;1.00;;;;;;5006133;28;20038;-62
2023/06/11 02:15:18;;;;;;;38.60;34.78;;;19.10;1.00;;;;;;5009587;28;20057;-62
2023/06/11 02:17:44;;;;;;;38.40;34.53;;;18.60;1.00;;;;;;5006845;28;20120;-62
2023/06/11 02:20:11;;;;;;;37.90;34.45;;;18.80;1.00;;;;;;5010982;28;20152;-62
2023/06/11 02:22:37;;;;;;;39.60;35.85;;;18.70;1.00;;;;;;5011969;28;20050;-62
2023/06/11 02:25:03;;;;;;;38.58;35.08;;;18.70;1.00;;;;;;5010462;28;20060;-62
2023/06/11 02:27:29;;;;;;;38.67;35.10;;;18.70;1.00;;;;;;5011653;28;20076;-62
2023/06/11 02:29:56;;;;;;;39.72;35.75;;;18.60;1.00;;;;;;5012170;28;20106;-61
2023/06/11 02:32:22;;;;;;;40.95;36.83;;;18.40;1.00;;;;;;5012433;28;20038;-62
2023/06/11 02:34:48;;;;;;;39.67;36.20;;;18.40;1.00;;;;;;5010782;28;20033;-62
2023/06/11 02:37:13;;;;;;;39.63;35.92;;;18.40;19.60;;;;;;5011515;28;20046;-62
2023/06/11 02:39:39;;;;;;;40.85;36.55;;;18.30;93.60;;;;;;5009968;28;20499;-61
2023/06/11 02:42:05;;;;;;;41.03;36.70;;;18.10;99.90;;;;;;5012508;28;20207;-62
2023/06/11 02:44:31;;;;;;;40.50;36.88;;;18.00;99.90;;;;;;5011161;28;20411;-62
2023/06/11 02:46:57;;;;;;;41.13;37.15;;;18.00;99.90;;;;;;5011084;28;20046;-62
2023/06/11 02:49:22;;;;;;;41.50;37.25;;;18.00;1.00;;;;;;5010715;28;20045;-62
2023/06/11 02:51:48;;;;;;;40.90;37.20;;;18.10;1.00;;;;;;5025854;28;20042;-62
2023/06/11 02:54:13;;;;;;;40.97;37.17;;;18.00;15.30;;;;;;5011472;28;20061;-62
2023/06/11 02:56:39;;;;;;;39.97;36.00;;;17.80;96.70;;;;;;5011588;28;20041;-61
2023/06/11 02:59:05;;;;;;;40.83;36.83;;;17.90;99.90;;;;;;5011565;28;20440;-62
2023/06/11 03:01:31;;;;;;;40.10;36.25;;;18.00;99.90;;;;;;5007807;28;20041;-61
2023/06/11 03:03:56;;;;;;;39.40;35.85;;;17.90;99.90;;;;;;5004121;28;20037;-62
2023/06/11 03:06:22;;;;;;;40.42;36.55;;;17.90;99.90;;;;;;5010498;28;20073;-62
2023/06/11 03:08:47;;;;;;;39.20;35.40;;;17.80;99.90;;;;;;5011783;28;20038;-62
2023/06/11 03:11:14;;;;;;;40.45;36.85;;;18.00;99.90;;;;;;5009751;28;20038;-62
2023/06/11 03:13:40;;;;;;;38.03;34.67;;;17.90;99.80;;;;;;5008898;28;20042;-62
2023/06/11 03:16:05;;;;;;;39.15;35.65;;;17.90;1.00;;;;;;5009088;28;20037;-62
2023/06/11 03:18:31;;;;;;;40.95;37.05;;;18.10;1.00;;;;;;5010319;28;20034;-62
2023/06/11 03:20:56;;;;;;;40.38;36.65;;;18.30;99.90;;;;;;5006702;28;20034;-62
2023/06/11 03:23:22;;;;;;;41.35;37.50;;;18.00;98.80;;;;;;5011436;28;20084;-62
2023/06/11 03:25:48;;;;;;;43.25;39.28;;;18.00;1.00;;;;;;5010749;28;20053;-62
2023/06/11 03:28:13;;;;;;;42.50;38.80;;;17.90;1.00;;;;;;5009016;28;20053;-62
2023/06/11 03:30:39;;;;;;;43.67;39.58;;;18.00;99.90;;;;;;5010342;28;20377;-62
2023/06/11 03:33:04;;;;;;;42.67;38.75;;;17.90;99.90;;;;;;5011034;28;20086;-62
2023/06/11 03:35:30;;;;;;;43.28;39.20;;;17.80;99.90;;;;;;5009230;28;20034;-62
2023/06/11 03:37:55;;;;;;;42.33;38.55;;;17.90;99.90;;;;;;5011339;28;20046;-62
2023/06/11 03:40:21;;;;;;;44.50;40.08;;;17.90;90.30;;;;;;5009106;28;20037;-62
2023/06/11 03:42:47;;;;;;;43.88;39.83;;;18.00;1.00;;;;;;5010637;28;20081;-62
2023/06/11 03:45:12;;;;;;;44.05;39.95;;;17.90;1.00;;;;;;5011096;28;20049;-62
2023/06/11 03:47:38;;;;;;;42.97;38.92;;;17.90;1.00;;;;;;5008726;28;20121;-62
2023/06/11 03:50:04;;;;;;;41.67;37.97;;;18.00;1.00;;;;;;5010470;28;20046;-62
2023/06/11 03:52:30;;;;;;;42.33;38.42;;;18.10;1.00;;;;;;5010889;28;20049;-62
2023/06/11 03:54:56;;;;;;;43.92;39.80;;;18.00;99.90;;;;;;5010324;28;20050;-62
2023/06/11 03:57:22;;;;;;;42.97;39.17;;;18.00;99.90;;;;;;5024720;28;20069;-62
2023/06/11 03:59:47;;;;;;;43.15;39.25;;;18.00;99.90;;;;;;5009089;28;20534;-62
2023/06/11 04:02:13;;;;;;;43.63;39.63;;;17.90;99.90;;;;;;5010878;28;20104;-62
2023/06/11 04:04:39;;;;;;;44.38;40.13;;;17.90;99.90;;;;;;5008915;28;20057;-62
2023/06/11 04:07:05;;;;;;;43.20;39.35;;;17.90;99.90;;;;;;5009561;28;20779;-62
2023/06/11 04:09:31;;;;;;;42.38;38.72;;;18.00;99.90;;;;;;5009150;28;20504;-62
2023/06/11 04:11:57;;;;;;;42.95;39.03;;;18.00;81.30;;;;;;5006387;28;20073;-62
2023/06/11 04:14:23;;;;;;;42.25;38.30;;;18.10;28.20;;;;;;5005786;28;20096;-62
2023/06/11 04:16:49;;;;;;;42.72;38.92;;;18.10;1.00;;;;;;5008224;28;20095;-62
2023/06/11 04:19:15;;;;;;;40.90;37.33;;;18.00;1.00;;;;;;5009566;28;20133;-62
2023/06/11 04:21:40;;;;;;;42.35;38.55;;;18.00;1.00;;;;;;5009583;28;20081;-62
2023/06/11 04:24:06;;;;;;;41.85;38.30;;;18.10;1.00;;;;;;5010000;28;20092;-62
2023/06/11 04:26:32;;;;;;;41.50;37.90;;;18.00;99.90;;;;;;5008754;28;20160;-62
2023/06/11 04:28:59;;;;;;;42.60;38.67;;;18.10;99.90;;;;;;5008642;28;20060;-62
2023/06/11 04:31:26;;;;;;;40.40;37.03;;;18.00;99.90;;;;;;5010439;28;20050;-62
2023/06/11 04:33:56;;;;;;;41.58;37.83;;;18.00;99.90;;;;;;5008906;28;20085;-62
2023/06/11 04:36:24;;;;;;;41.67;37.97;;;18.20;99.90;;;;;;5008973;28;20046;-62
2023/06/11 04:38:51;;;;;;;41.53;37.70;;;18.20;99.90;;;;;;5008162;28;20073;-62
2023/06/11 04:41:17;;;;;;;41.25;37.70;;;18.20;67.00;;;;;;5010164;28;20046;-62
2023/06/11 04:43:44;;;;;;;40.72;37.00;;;18.20;15.80;;;;;;5008225;28;20088;-62
2023/06/11 04:46:10;;;;;;;40.50;36.97;;;18.10;1.00;;;;;;5009347;28;20056;-61
2023/06/11 04:48:37;;;;;;;41.63;37.95;;;18.20;1.00;;;;;;5009303;28;20030;-61
2023/06/11 04:51:04;;;;;;;42.60;38.55;;;18.30;1.00;;;;;;5009689;28;20038;-62
2023/06/11 04:53:30;;;;;;;42.17;38.10;;;18.50;1.00;;;;;;5008596;28;20042;-62
2023/06/11 04:55:57;;;;;;;41.55;37.60;;;18.40;99.90;;;;;;5007747;28;20038;-62
2023/06/11 04:58:26;;;;;;;40.83;37.35;;;18.40;99.90;;;;;;5009811;28;20125;-62
2023/06/11 05:00:56;;;;;;;41.97;37.92;;;18.40;99.90;;;;;;5008498;28;20034;-62
2023/06/11 05:03:32;;;;;;;40.25;36.85;;;18.50;99.90;;;;;;5010061;28;20042;-62
2023/06/11 05:05:58;;;;;;;40.92;37.50;;;18.50;99.90;;;;;;5008621;28;20034;-61
2023/06/11 05:08:25;;;;;;;40.10;36.70;;;18.50;99.90;;;;;;5008010;28;20057;-61
2023/06/11 05:10:51;;;;;;;39.97;36.58;;;18.60;99.90;;;;;;5020548;28;20072;-62
2023/06/11 05:13:24;;;;;;;38.25;35.05;;;18.70;83.30;;;;;;5005352;28;20096;-61
2023/06/11 05:15:51;;;;;;;41.60;37.97;;;18.70;43.50;;;;;;5003143;28;20041;-62
2023/06/11 05:18:16;;;;;;;37.75;34.55;;;18.70;1.00;;;;;;5005650;28;20040;-61
2023/06/11 05:20:42;;;;;;;40.25;36.85;;;18.80;1.00;;;;;;5007184;28;20042;-61
2023/06/11 05:23:07;;;;;;;40.33;36.83;;;18.90;1.00;;;;;;5009804;28;20053;-62
2023/06/11 05:25:33;;;;;;;39.75;36.28;;;18.90;1.00;;;;;;5012107;28;20512;-62
2023/06/11 05:28:00;;;;;;;39.83;36.33;;;18.90;1.00;;;;;;5007651;28;20599;-63
2023/06/11 05:30:29;;;;;;;39.45;35.67;;;19.00;1.00;;;;;;5004120;28;20088;-62
2023/06/11 05:32:56;;;;;;;40.10;36.63;;;19.10;1.00;;;;;;5008905;28;20409;-62
2023/06/11 05:35:25;;;;;;;39.97;36.58;;;19.10;99.90;;;;;;5007352;28;20117;-62
2023/06/11 05:37:51;;;;;;;39.58;36.30;;;19.20;99.90;;;;;;5006351;28;20069;-62
2023/06/11 05:40:17;;;;;;;40.10;36.40;;;19.30;99.90;;;;;;5002400;28;20518;-62
2023/06/11 05:42:43;;;;;;;39.58;36.17;;;19.50;99.90;;;;;;5005547;28;20065;-62
2023/06/11 05:45:08;;;;;;;40.17;36.72;;;19.50;99.90;;;;;;5003799;28;20056;-62
2023/06/11 05:47:34;;;;;;;40.20;36.90;;;19.50;99.90;;;;;;5006024;28;20050;-62
2023/06/11 05:50:00;;;;;;;40.42;36.90;;;19.50;99.90;;;;;;5008612;28;20038;-62
2023/06/11 05:52:26;;;;;;;36.42;33.33;;;19.60;99.90;;;;;;5009144;28;20088;-62
2023/06/11 05:54:51;;;;;;;38.10;35.00;;;19.80;99.90;;;;;;5008226;28;20069;-62
2023/06/11 05:57:22;;;;;;;37.63;34.33;;;19.80;99.90;;;;;;5008478;28;20092;-62
2023/06/11 05:59:47;;;;;;;41.45;37.83;;;19.80;99.90;;;;;;5008981;28;20046;-62
2023/06/11 06:02:13;;;;;;;37.85;34.75;;;19.90;97.10;;;;;;5011495;28;20381;-62
2023/06/11 06:04:38;;;;;;;40.40;36.80;;;20.00;81.00;;;;;;5007753;28;20034;-62
2023/06/11 06:07:04;;;;;;;40.13;36.42;;;20.10;27.90;;;;;;5003600;28;20045;-61
2023/06/11 06:09:30;;;;;;;40.67;36.75;;;20.10;5.40;;;;;;5002715;28;20503;-62
2023/06/11 06:11:56;;;;;;;39.10;35.90;;;20.30;15.60;;;;;;5003608;28;20065;-62
2023/06/11 06:14:21;;;;;;;38.15;34.90;;;20.30;1.00;;;;;;5007794;28;20066;-62
2023/06/11 06:16:47;;;;;;;41.30;37.50;;;20.40;1.00;;;;;;5008658;28;20038;-61
2023/06/11 06:19:13;;;;;;;38.65;35.22;;;20.50;1.00;;;;;;5009069;28;20053;-62
2023/06/11 06:21:38;;;;;;;35.92;32.95;;;20.60;1.00;;;;;;5007564;28;20045;-61
2023/06/11 06:24:04;;;;;;;38.35;34.88;;;20.70;99.90;;;;;;4994695;28;20085;-62
2023/06/11 06:26:30;;;;;;;37.90;34.67;;;20.60;99.90;;;;;;5012736;28;20495;-62
2023/06/11 06:28:56;;;;;;;39.40;35.75;;;20.80;99.90;;;;;;5012206;28;20062;-62
2023/06/11 06:31:22;;;;;;;36.22;32.90;;;20.80;99.90;;;;;;5011224;28;20125;-62
2023/06/11 06:33:50;;;;;;;37.50;34.38;;;21.00;99.90;;;;;;5010717;28;20476;-62
2023/06/11 06:36:16;;;;;;;37.13;34.05;;;21.10;99.90;;;;;;5010981;28;20038;-61
2023/06/11 06:38:42;;;;;;;36.22;33.10;;;21.40;99.90;;;;;;5010923;28;20091;-61
2023/06/11 06:41:08;;;;;;;36.45;33.40;;;21.30;91.80;;;;;;5011896;28;20038;-61
2023/06/11 06:43:34;;;;;;;37.63;34.33;;;21.50;55.70;;;;;;5011680;28;20060;-61
2023/06/11 06:46:00;;;;;;;35.92;32.88;;;21.70;40.10;;;;;;5010404;28;20041;-62
2023/06/11 06:48:26;;;;;;;37.47;34.47;;;22.20;6.40;;;;;;5008245;28;20496;-61
2023/06/11 06:50:52;;;;;;;38.95;35.45;;;21.90;1.00;;;;;;5024360;28;20041;-61
2023/06/11 06:53:17;;;;;;;39.67;36.17;;;22.00;1.00;;;;;;5011082;28;20050;-61
2023/06/11 06:55:44;;;;;;;38.33;35.13;;;22.20;1.00;;;;;;5008553;28;20412;-62
2023/06/11 06:58:10;;;;;;;38.08;34.88;;;22.50;1.00;;;;;;5008006;28;20138;-61
2023/06/11 07:00:36;;;;;;;39.63;36.30;;;22.90;1.00;;;;;;5005974;28;20468;-62
2023/06/11 07:03:01;;;;;;;37.53;34.40;;;22.60;1.00;;;;;;5010426;28;20049;-62
2023/06/11 07:05:27;;;;;;;38.78;35.67;;;22.80;1.00;;;;;;5007877;28;20038;-62
2023/06/11 07:07:53;;;;;;;38.72;35.38;;;22.90;99.90;;;;;;5011838;28;20037;-62
2023/06/11 07:10:19;;;;;;;37.78;34.50;;;22.90;99.90;;;;;;5009370;28;20077;-62
2023/06/11 07:12:45;;;;;;;37.22;34.33;;;23.10;99.90;;;;;;5010423;28;20041;-62
2023/06/11 07:15:11;;;;;;;38.33;35.33;;;23.20;99.90;;;;;;5009233;28;20042;-62
2023/06/11 07:17:37;;;;;;;40.03;36.60;;;23.30;99.90;;;;;;5010711;28;20037;-62
2023/06/11 07:20:09;;;;;;;41.03;37.72;;;23.40;99.90;;;;;;5005915;28;20496;-62
2023/06/11 07:22:35;;;;;;;42.15;38.83;;;23.50;99.90;;;;;;5008557;28;20058;-62
2023/06/11 07:25:01;;;;;;;38.13;35.15;;;23.70;99.90;;;;;;5010925;28;20133;-62
2023/06/11 07:27:27;;;;;;;46.55;42.83;;;23.80;99.90;;;;;;5010463;28;20045;-62
2023/06/11 07:29:52;;;;;;;119.55;109.95;;;23.90;99.90;;;;;;5007258;28;20034;-62
2023/06/11 07:32:18;;;;;;;110.70;101.75;;;24.00;99.90;;;;;;5009068;28;20034;-62
2023/06/11 07:34:43;;;;;;;94.82;87.55;;;24.10;99.90;;;;;;5009299;28;20524;-62
2023/06/11 07:37:09;;;;;;;92.30;85.38;;;24.20;99.90;;;;;;5010691;28;20042;-62
2023/06/11 07:39:35;;;;;;;100.82;92.95;;;24.30;99.90;;;;;;5010654;28;20048;-61
2023/06/11 07:42:01;;;;;;;113.88;105.10;;;24.40;99.90;;;;;;5010079;28;20038;-62
2023/06/11 07:44:27;;;;;;;108.00;99.53;;;24.70;99.90;;;;;;5022986;28;20153;-62
2023/06/11 07:46:52;;;;;;;115.70;106.50;;;24.80;99.90;;;;;;5005849;28;20145;-61
2023/06/11 07:49:18;;;;;;;114.00;105.95;;;25.00;99.90;;;;;;5009764;28;20049;-62
2023/06/11 07:51:46;;;;;;;31.17;28.58;;;25.00;99.90;;;;;;5010480;28;20042;-62
2023/06/11 07:54:11;;;;;;;21.02;16.38;;;25.10;99.90;;;;;;5010165;28;20038;-62
2023/06/11 07:56:37;;;;;;;12.95;11.05;;;25.10;99.90;;;;;;5009330;28;20048;-62
2023/06/11 07:59:04;;;;;;;9.18;7.85;;;25.30;97.10;;;;;;5015940;28;20060;-61
2023/06/11 08:01:29;;;;;;;9.85;8.80;;;25.30;83.40;;;;;;5010143;28;20132;-62
2023/06/11 08:03:55;;;;;;;11.05;8.90;;;25.30;69.30;;;;;;5010402;28;20044;-61
2023/06/11 08:06:20;;;;;;;11.55;9.20;;;25.50;70.00;;;;;;5000160;28;20381;-62
2023/06/11 08:08:47;;;;;;;12.20;8.80;;;25.50;57.20;;;;;;5007826;28;20098;-62
2023/06/11 08:11:13;;;;;;;11.45;8.40;;;25.70;48.40;;;;;;5008097;28;20049;-61
2023/06/11 08:13:40;;;;;;;11.05;9.38;;;25.70;40.90;;;;;;5009498;28;20444;-62
2023/06/11 08:16:07;;;;;;;12.20;9.07;;;25.90;40.10;;;;;;5010336;28;20049;-62
2023/06/11 08:18:33;;;;;;;11.10;8.35;;;26.00;33.20;;;;;;5005258;28;20068;-62
2023/06/11 08:21:00;;;;;;;9.75;8.45;;;26.10;29.40;;;;;;5005600;28;20496;-62
2023/06/11 08:23:26;;;;;;;10.07;8.38;;;26.30;24.70;;;;;;5007264;28;20076;-62
2023/06/11 08:25:52;;;;;;;10.10;8.15;;;26.50;14.40;;;;;;5009513;28;20038;-62
2023/06/11 08:28:19;;;;;;;8.98;8.07;;;26.60;7.90;;;;;;5008601;28;20068;-62
2023/06/11 08:30:45;;;;;;;11.68;8.05;;;26.80;1.00;;;;;;5009885;28;20117;-62
2023/06/11 08:33:11;;;;;;;9.50;8.30;;;27.00;1.00;;;;;;5010341;28;20552;-62
2023/06/11 08:35:37;;;;;;;10.98;8.07;;;27.20;1.00;;;;;;5009676;28;20044;-62
2023/06/11 08:38:02;;;;;;;9.60;8.48;;;27.40;1.00;;;;;;5008335;28;20034;-62
2023/06/11 08:40:29;;;;;;;10.63;7.50;;;27.10;1.00;;;;;;5007193;28;20041;-62
2023/06/11 08:42:54;;;;;;;9.73;7.70;;;27.20;1.00;;;;;;5006912;28;20062;-62
2023/06/11 08:45:20;;;;;;;9.38;7.35;;;27.40;1.00;;;;;;5009559;28;20057;-61
2023/06/11 08:47:52;;;;;;;10.10;8.00;;;27.50;1.00;;;;;;5009340;28;20049;-62
2023/06/11 08:50:21;;;;;;;10.85;8.05;;;27.60;1.00;;;;;;5012239;28;20566;-62
2023/06/11 08:52:51;;;;;;;9.75;7.15;;;27.50;1.00;;;;;;5007659;28;20111;-62
2023/06/11 08:55:17;;;;;;;8.20;7.40;;;27.70;1.00;;;;;;5008185;28;20470;-62
2023/06/11 08:57:43;;;;;;;9.23;8.15;;;27.80;1.00;;;;;;5007680;28;20065;-62
2023/06/11 09:00:09;;;;;;;10.75;7.35;;;27.80;1.00;;;;;;5009031;28;20045;-62
2023/06/11 09:02:36;;;;;;;13.32;7.90;;;27.80;1.00;;;;;;5007794;28;20050;-62
2023/06/11 09:05:03;;;;;;;9.07;8.07;;;27.90;1.00;;;;;;5003510;28;20080;-62
2023/06/11 09:07:29;;;;;;;10.00;7.97;;;27.90;1.00;;;;;;5008774;28;20073;-62
2023/06/11 09:10:08;;;;;;;8.80;7.47;;;28.10;1.00;;;;;;5003683;28;20076;-62
2023/06/11 09:12:34;;;;;;;8.75;7.82;;;28.00;1.00;;;;;;5009378;28;20133;-62
2023/06/11 09:15:00;;;;;;;9.23;8.05;;;28.10;1.00;;;;;;5006402;28;20444;-63
2023/06/11 09:17:36;;;;;;;9.30;7.65;;;28.30;1.00;;;;;;5006832;28;20042;-62
2023/06/11 09:20:07;;;;;;;12.85;7.40;;;28.60;1.00;;;;;;5008917;28;20095;-63
2023/06/11 09:22:35;;;;;;;9.75;7.88;;;28.60;1.00;;;;;;5008811;28;20451;-63
2023/06/11 09:25:16;;;;;;;8.35;7.00;;;28.90;1.00;;;;;;5009741;28;20038;-63
2023/06/11 09:27:44;;;;;;;11.10;8.25;;;29.00;1.00;;;;;;5007440;28;20050;-62
2023/06/11 09:30:18;;;;;;;13.07;8.15;;;29.10;1.00;;;;;;5009180;28;20042;-62
2023/06/11 09:32:48;;;;;;;11.77;7.43;;;29.10;1.00;;;;;;5009324;28;20140;-62
2023/06/11 09:35:14;;;;;;;8.63;7.53;;;29.10;1.00;;;;;;5008511;28;20041;-62
2023/06/11 09:37:42;;;;;;;11.80;7.65;;;29.30;1.00;;;;;;5008914;28;20038;-61
2023/06/11 09:40:14;;;;;;;9.27;7.88;;;29.40;1.00;;;;;;5009195;28;20089;-62
2023/06/11 09:42:43;;;;;;;8.77;6.97;;;29.50;1.00;;;;;;5008563;28;20061;-62
2023/06/11 09:45:19;;;;;;;9.45;6.93;;;29.40;1.00;;;;;;5007941;28;20038;-61
2023/06/11 09:47:46;;;;;;;8.10;7.30;;;29.50;1.00;;;;;;5008826;28;20084;-62
2023/06/11 09:50:18;;;;;;;9.40;7.13;;;29.60;1.00;;;;;;5008725;28;20042;-63
2023/06/11 09:52:45;;;;;;;8.05;7.25;;;29.80;1.00;;;;;;5008315;28;20267;-62
2023/06/11 09:55:11;;;;;;;8.02;7.15;;;30.00;1.00;;;;;;5012709;28;20044;-63
2023/06/11 09:57:39;;;;;;;9.15;7.40;;;30.20;1.00;;;;;;5013584;28;20081;-63
2023/06/11 10:00:09;;;;;;;7.57;6.65;;;30.10;1.00;;;;;;5012015;28;20046;-63
2023/06/11 10:02:36;;;;;;;7.97;6.70;;;30.00;1.00;;;;;;5010750;28;20409;-63
2023/06/11 10:05:02;;;;;;;11.68;6.65;;;30.10;1.00;;;;;;5011813;28;20127;-62
2023/06/11 10:07:30;;;;;;;9.77;6.93;;;30.30;1.00;;;;;;5006569;28;20071;-62
2023/06/11 10:09:56;;;;;;;10.98;6.88;;;30.30;1.00;;;;;;5011557;28;20507;-63
2023/06/11 10:12:22;;;;;;;9.93;7.30;;;30.00;1.00;;;;;;5010944;28;20064;-63
2023/06/11 10:14:52;;;;;;;9.10;6.78;;;30.00;1.00;;;;;;5014343;28;20038;-63
2023/06/11 10:17:17;;;;;;;9.60;7.30;;;30.10;1.00;;;;;;5012703;28;20118;-63
2023/06/11 10:19:48;;;;;;;7.85;6.93;;;30.20;1.00;;;;;;5009888;28;20113;-63
2023/06/11 10:22:19;;;;;;;9.40;7.07;;;30.10;1.00;;;;;;5011854;28;20395;-63
2023/06/11 10:24:57;;;;;;;7.55;6.75;;;30.00;1.00;;;;;;5011975;28;20049;-62
2023/06/11 10:27:37;;;;;;;7.85;6.53;;;29.80;1.00;;;;;;5011438;28;20042;-62
2023/06/11 10:30:05;;;;;;;9.10;6.50;;;30.00;1.00;;;;;;5009376;28;20534;-61
2023/06/11 10:32:31;;;;;;;7.15;6.30;;;29.90;1.00;;;;;;5009642;28;20692;-62
2023/06/11 10:35:03;;;;;;;7.22;6.22;;;29.90;1.00;;;;;;5011500;28;20422;-61
2023/06/11 10:37:41;;;;;;;8.57;6.28;;;30.00;1.00;;;;;;5009423;28;20033;-61
2023/06/11 10:40:08;;;;;;;8.57;6.03;;;29.80;1.00;;;;;;5011147;28;20030;-61
2023/06/11 10:42:44;;;;;;;8.45;6.38;;;29.70;1.00;;;;;;5010358;28;20049;-62
2023/06/11 10:45:13;;;;;;;8.30;6.60;;;29.80;1.00;;;;;;5012372;28;20057;-61
2023/06/11 10:47:44;;;;;;;9.85;6.22;;;29.90;1.00;;;;;;5011361;28;20787;-61
2023/06/11 10:50:12;;;;;;;7.35;6.65;;;29.70;1.00;;;;;;5011985;28;20132;-62
2023/06/11 10:52:50;;;;;;;10.07;6.68;;;29.70;1.00;;;;;;5011721;28;20073;-62
2023/06/11 10:55:18;;;;;;;10.43;6.53;;;29.60;1.00;;;;;;5012589;28;20100;-62
2023/06/11 10:57:44;;;;;;;10.43;5.80;;;29.50;1.00;;;;;;5011902;28;20038;-61
2023/06/11 11:00:10;;;;;;;7.40;6.03;;;29.60;1.00;;;;;;5011825;28;20037;-61
2023/06/11 11:02:37;;;;;;;8.45;6.50;;;29.60;1.00;;;;;;5010308;28;20041;-62
2023/06/11 11:05:09;;;;;;;11.07;6.43;;;29.60;1.00;;;;;;5003523;28;20045;-61
2023/06/11 11:07:35;;;;;;;10.30;6.07;;;29.70;1.00;;;;;;5010033;28;20080;-63
2023/06/11 11:10:02;;;;;;;7.40;6.20;;;29.80;1.00;;;;;;5010084;28;20049;-61
2023/06/11 11:12:35;;;;;;;8.52;6.38;;;29.70;99.90;;;;;;5010769;28;20081;-61
2023/06/11 11:15:00;;;;;;;7.32;5.95;;;29.60;1.00;;;;;;5026906;28;20087;-61
2023/06/11 11:17:26;;;;;;;6.90;6.30;;;29.60;1.00;;;;;;5011151;28;20026;-61
2023/06/11 11:19:52;;;;;;;7.60;5.88;;;29.60;1.00;;;;;;5011025;28;20069;-62
2023/06/11 11:22:17;;;;;;;6.22;5.63;;;29.70;1.00;;;;;;5010856;28;20467;-61
2023/06/11 11:24:43;;;;;;;6.80;5.85;;;29.70;1.00;;;;;;5010923;28;20045;-62
2023/06/11 11:27:09;;;;;;;6.70;6.00;;;29.60;99.90;;;;;;5009370;28;20045;-61
2023/06/11 11:29:34;;;;;;;6.80;5.60;;;29.50;99.90;;;;;;5012533;28;20091;-61
2023/06/11 11:32:00;;;;;;;9.88;6.07;;;29.50;1.00;;;;;;5010703;28;20428;-61
2023/06/11 11:34:29;;;;;;;9.50;6.15;;;29.60;1.00;;;;;;5007899;28;20038;-60
2023/06/11 11:36:55;;;;;;;6.80;5.80;;;29.50;99.90;;;;;;5004061;28;20607;-60
2023/06/11 11:39:20;;;;;;;6.78;6.07;;;29.50;99.90;;;;;;5007722;28;20058;-60
2023/06/11 11:41:50;;;;;;;9.48;6.20;;;29.70;99.90;;;;;;5007919;28;20530;-60
2023/06/11 11:44:17;;;;;;;6.22;5.63;;;29.60;99.90;;;;;;5004409;28;20049;-60
2023/06/11 11:46:43;;;;;;;7.45;5.85;;;29.60;99.90;;;;;;5002261;28;20184;-60
2023/06/11 11:49:09;;;;;;;8.00;5.38;;;29.60;99.90;;;;;;5005990;28;20155;-60
2023/06/11 11:51:40;;;;;;;6.47;5.60;;;29.60;99.90;;;;;;5010718;28;20084;-60
2023/06/11 11:54:07;;;;;;;6.97;5.55;;;29.50;99.90;;;;;;5009924;28;20026;-60
2023/06/11 11:56:33;;;;;;;7.55;6.22;;;29.50;99.90;;;;;;5011083;28;20034;-60
2023/06/11 11:58:59;;;;;;;6.75;5.50;;;29.50;99.90;;;;;;5010987;28;20121;-60
2023/06/11 12:01:30;;;;;;;6.80;5.47;;;29.40;99.90;;;;;;5010718;28;20138;-60
2023/06/11 12:04:03;;;;;;;8.85;5.93;;;29.40;99.90;;;;;;5010462;28;20057;-60
2023/06/11 12:06:30;;;;;;;7.50;5.63;;;29.30;99.90;;;;;;5007540;28;20387;-60
2023/06/11 12:08:55;;;;;;;8.75;5.45;;;29.20;99.90;;;;;;5006462;28;20037;-60
2023/06/11 12:11:21;;;;;;;7.25;5.35;;;29.40;99.90;;;;;;5013453;28;20675;-60
2023/06/11 12:13:47;;;;;;;7.57;5.30;;;29.30;99.90;;;;;;5015892;28;20041;-60
2023/06/11 12:16:14;;;;;;;6.47;5.35;;;29.30;99.90;;;;;;5004997;28;20061;-60
2023/06/11 12:18:40;;;;;;;10.93;5.53;;;29.20;99.90;;;;;;5006831;28;20141;-60
2023/06/11 12:21:07;;;;;;;7.05;5.22;;;29.40;99.90;;;;;;5005438;28;20511;-61
2023/06/11 12:23:33;;;;;;;7.68;5.22;;;29.40;99.90;;;;;;5000340;28;21502;-61
2023/06/11 12:26:00;;;;;;;5.40;4.90;;;29.50;99.90;;;;;;4998115;28;20050;-60
2023/06/11 12:28:25;;;;;;;6.57;4.93;;;29.50;99.90;;;;;;4990967;28;20050;-60
2023/06/11 12:30:51;;;;;;;7.57;4.93;;;29.20;99.90;;;;;;5008963;28;20137;-60
2023/06/11 12:33:17;;;;;;;7.30;4.57;;;29.00;99.90;;;;;;5003344;28;20041;-60
2023/06/11 12:35:43;;;;;;;8.73;5.22;;;29.20;99.90;;;;;;4997130;28;20133;-60
2023/06/11 12:38:10;;;;;;;5.25;4.75;;;29.50;99.90;;;;;;4999165;28;20562;-61